sensor_id;sensor_type;location;lat;lon;timestamp;pressure;altitude;pressure_sealevel;temperature;humidity
80585;BME280;70137;56.482;9.154;2023-09-18T00:01:04;101115.34;;;15.99;80.73
80585;BME280;70137;56.482;9.154;2023-09-18T00:03:30;101101.91;;;16.02;80.87
80585;BME280;70137;56.482;9.154;2023-09-18T00:05:56;101087.44;;;16.06;80.73
80585;BME280;70137;56.482;9.154;2023-09-18T00:08:21;101078.59;;;16.07;80.67
80585;BME280;70137;56.482;9.154;2023-09-18T00:10:52;101079.19;;;16.09;80.61
80585;BME280;70137;56.482;9.154;2023-09-18T00:13:18;101076.97;;;16.06;81.14
80585;BME280;70137;56.482;9.154;2023-09-18T00:15:43;101076.16;;;16.06;82.20
80585;BME280;70137;56.482;9.154;2023-09-18T00:18:13;101063.03;;;15.99;82.50
80585;BME280;70137;56.482;9.154;2023-09-18T00:20:38;101054.34;;;15.92;82.56
80585;BME280;70137;56.482;9.154;2023-09-18T00:23:04;101054.72;;;15.89;83.29
80585;BME280;70137;56.482;9.154;2023-09-18T00:25:29;101060.16;;;15.87;83.87
80585;BME280;70137;56.482;9.154;2023-09-18T00:27:55;101053.50;;;15.85;82.84
80585;BME280;70137;56.482;9.154;2023-09-18T00:30:21;101045.66;;;15.85;83.57
80585;BME280;70137;56.482;9.154;2023-09-18T00:32:46;101049.88;;;15.86;83.95
80585;BME280;70137;56.482;9.154;2023-09-18T00:35:15;101047.88;;;15.88;83.55
80585;BME280;70137;56.482;9.154;2023-09-18T00:37:40;101035.22;;;15.91;84.18
80585;BME280;70137;56.482;9.154;2023-09-18T00:40:06;101031.44;;;15.94;84.12
80585;BME280;70137;56.482;9.154;2023-09-18T00:42:32;101011.34;;;15.94;84.53
80585;BME280;70137;56.482;9.154;2023-09-18T00:44:57;101007.28;;;15.92;85.54
80585;BME280;70137;56.482;9.154;2023-09-18T00:47:23;101018.13;;;15.89;85.60
80585;BME280;70137;56.482;9.154;2023-09-18T00:49:49;101015.09;;;15.85;85.99
80585;BME280;70137;56.482;9.154;2023-09-18T00:52:17;101015.28;;;15.84;86.03
80585;BME280;70137;56.482;9.154;2023-09-18T00:54:44;100997.16;;;15.82;85.69
80585;BME280;70137;56.482;9.154;2023-09-18T00:57:10;100996.34;;;15.82;86.42
80585;BME280;70137;56.482;9.154;2023-09-18T00:59:37;101006.19;;;15.80;86.84
80585;BME280;70137;56.482;9.154;2023-09-18T01:02:02;100992.31;;;15.79;86.63
80585;BME280;70137;56.482;9.154;2023-09-18T01:04:29;100994.94;;;15.79;86.61
80585;BME280;70137;56.482;9.154;2023-09-18T01:06:55;100990.50;;;15.80;86.48
80585;BME280;70137;56.482;9.154;2023-09-18T01:09:22;100985.88;;;15.82;87.00
80585;BME280;70137;56.482;9.154;2023-09-18T01:14:25;100990.16;;;15.83;87.67
80585;BME280;70137;56.482;9.154;2023-09-18T01:16:58;100988.34;;;15.83;87.25
80585;BME280;70137;56.482;9.154;2023-09-18T01:22:03;100984.91;;;15.83;87.52
80585;BME280;70137;56.482;9.154;2023-09-18T01:24:28;100972.81;;;15.82;87.68
80585;BME280;70137;56.482;9.154;2023-09-18T01:26:54;100978.69;;;15.84;87.87
80585;BME280;70137;56.482;9.154;2023-09-18T01:29:19;100982.09;;;15.84;87.71
80585;BME280;70137;56.482;9.154;2023-09-18T01:31:45;100987.34;;;15.84;88.17
80585;BME280;70137;56.482;9.154;2023-09-18T01:34:15;100986.13;;;15.87;88.10
80585;BME280;70137;56.482;9.154;2023-09-18T01:36:43;100993.78;;;15.88;87.99
80585;BME280;70137;56.482;9.154;2023-09-18T01:39:10;100993.59;;;15.90;88.77
80585;BME280;70137;56.482;9.154;2023-09-18T01:41:36;100995.19;;;15.91;88.09
80585;BME280;70137;56.482;9.154;2023-09-18T01:44:03;100997.81;;;15.91;88.31
80585;BME280;70137;56.482;9.154;2023-09-18T01:46:30;100988.97;;;15.92;88.30
80585;BME280;70137;56.482;9.154;2023-09-18T01:48:58;100981.13;;;15.92;87.67
80585;BME280;70137;56.482;9.154;2023-09-18T01:51:24;100986.75;;;15.89;87.91
80585;BME280;70137;56.482;9.154;2023-09-18T01:53:49;100986.75;;;15.89;88.06
80585;BME280;70137;56.482;9.154;2023-09-18T01:56:14;100973.69;;;15.89;88.09
80585;BME280;70137;56.482;9.154;2023-09-18T01:58:40;100971.06;;;15.89;88.06
80585;BME280;70137;56.482;9.154;2023-09-18T02:01:05;100969.47;;;15.88;88.39
80585;BME280;70137;56.482;9.154;2023-09-18T02:03:30;100974.69;;;15.88;87.94
80585;BME280;70137;56.482;9.154;2023-09-18T02:05:55;100976.28;;;15.89;88.55
80585;BME280;70137;56.482;9.154;2023-09-18T02:08:21;100965.03;;;15.88;88.23
80585;BME280;70137;56.482;9.154;2023-09-18T02:10:46;100966.84;;;15.88;88.60
80585;BME280;70137;56.482;9.154;2023-09-18T02:13:12;100958.19;;;15.87;88.94
80585;BME280;70137;56.482;9.154;2023-09-18T02:15:37;100965.22;;;15.87;88.52
80585;BME280;70137;56.482;9.154;2023-09-18T02:18:03;100954.16;;;15.85;89.02
80585;BME280;70137;56.482;9.154;2023-09-18T02:20:29;100956.16;;;15.83;88.78
80585;BME280;70137;56.482;9.154;2023-09-18T02:22:54;100956.78;;;15.85;89.03
80585;BME280;70137;56.482;9.154;2023-09-18T02:25:19;100949.75;;;15.85;88.86
80585;BME280;70137;56.482;9.154;2023-09-18T02:27:45;100943.31;;;15.88;88.90
80585;BME280;70137;56.482;9.154;2023-09-18T02:30:10;100938.88;;;15.88;89.61
80585;BME280;70137;56.482;9.154;2023-09-18T02:32:36;100930.03;;;15.89;89.72
80585;BME280;70137;56.482;9.154;2023-09-18T02:35:01;100916.78;;;15.91;89.70
80585;BME280;70137;56.482;9.154;2023-09-18T02:37:27;100918.38;;;15.92;89.60
80585;BME280;70137;56.482;9.154;2023-09-18T02:39:54;100904.34;;;15.93;89.79
80585;BME280;70137;56.482;9.154;2023-09-18T02:42:19;100905.94;;;15.94;89.47
80585;BME280;70137;56.482;9.154;2023-09-18T02:44:44;100892.69;;;15.95;89.35
80585;BME280;70137;56.482;9.154;2023-09-18T02:47:10;100896.31;;;15.94;89.77
80585;BME280;70137;56.482;9.154;2023-09-18T02:49:35;100891.06;;;15.94;90.03
80585;BME280;70137;56.482;9.154;2023-09-18T02:52:00;100885.66;;;15.96;89.84
80585;BME280;70137;56.482;9.154;2023-09-18T02:54:26;100884.63;;;15.97;90.35
80585;BME280;70137;56.482;9.154;2023-09-18T02:56:52;100868.16;;;15.96;89.86
80585;BME280;70137;56.482;9.154;2023-09-18T02:59:17;100876.59;;;15.98;89.84
80585;BME280;70137;56.482;9.154;2023-09-18T03:01:42;100862.53;;;15.99;89.74
80585;BME280;70137;56.482;9.154;2023-09-18T03:04:08;100848.44;;;16.00;90.52
80585;BME280;70137;56.482;9.154;2023-09-18T03:06:33;100853.50;;;16.02;89.79
80585;BME280;70137;56.482;9.154;2023-09-18T03:08:58;100847.25;;;16.03;90.16
80585;BME280;70137;56.482;9.154;2023-09-18T03:11:24;100832.97;;;16.06;89.95
80585;BME280;70137;56.482;9.154;2023-09-18T03:13:52;100828.34;;;16.08;90.69
80585;BME280;70137;56.482;9.154;2023-09-18T03:16:17;100818.69;;;16.08;90.36
80585;BME280;70137;56.482;9.154;2023-09-18T03:18:43;100814.06;;;16.10;90.47
80585;BME280;70137;56.482;9.154;2023-09-18T03:21:08;100815.69;;;16.11;90.75
80585;BME280;70137;56.482;9.154;2023-09-18T03:23:33;100815.50;;;16.13;90.58
80585;BME280;70137;56.482;9.154;2023-09-18T03:25:59;100805.84;;;16.13;90.67
80585;BME280;70137;56.482;9.154;2023-09-18T03:28:25;100808.47;;;16.13;90.59
80585;BME280;70137;56.482;9.154;2023-09-18T03:30:50;100810.09;;;16.14;90.60
80585;BME280;70137;56.482;9.154;2023-09-18T03:33:15;100812.09;;;16.19;90.85
80585;BME280;70137;56.482;9.154;2023-09-18T03:35:48;100808.28;;;16.21;90.15
80585;BME280;70137;56.482;9.154;2023-09-18T03:38:14;100807.28;;;16.22;90.67
80585;BME280;70137;56.482;9.154;2023-09-18T03:40:40;100804.25;;;16.25;90.56
80585;BME280;70137;56.482;9.154;2023-09-18T03:43:06;100806.69;;;16.27;90.95
80585;BME280;70137;56.482;9.154;2023-09-18T03:45:32;100805.47;;;16.29;90.51
80585;BME280;70137;56.482;9.154;2023-09-18T03:47:57;100805.91;;;16.33;91.32
80585;BME280;70137;56.482;9.154;2023-09-18T03:50:22;100811.53;;;16.37;90.79
80585;BME280;70137;56.482;9.154;2023-09-18T03:52:48;100793.81;;;16.39;90.85
80585;BME280;70137;56.482;9.154;2023-09-18T03:55:13;100795.41;;;16.40;90.85
80585;BME280;70137;56.482;9.154;2023-09-18T03:57:39;100786.59;;;16.41;90.82
80585;BME280;70137;56.482;9.154;2023-09-18T04:00:05;100773.31;;;16.42;90.86
80585;BME280;70137;56.482;9.154;2023-09-18T04:02:32;100764.44;;;16.43;90.90
80585;BME280;70137;56.482;9.154;2023-09-18T04:04:58;100761.63;;;16.45;91.07
80585;BME280;70137;56.482;9.154;2023-09-18T04:07:23;100754.38;;;16.47;90.69
80585;BME280;70137;56.482;9.154;2023-09-18T04:09:48;100767.25;;;16.48;91.39
80585;BME280;70137;56.482;9.154;2023-09-18T04:12:14;100761.22;;;16.48;90.81
80585;BME280;70137;56.482;9.154;2023-09-18T04:14:39;100759.19;;;16.50;90.76
80585;BME280;70137;56.482;9.154;2023-09-18T04:17:05;100746.75;;;16.52;90.82
80585;BME280;70137;56.482;9.154;2023-09-18T04:19:30;100737.88;;;16.53;90.55
80585;BME280;70137;56.482;9.154;2023-09-18T04:21:56;100743.50;;;16.56;90.96
80585;BME280;70137;56.482;9.154;2023-09-18T04:24:22;100739.88;;;16.57;91.16
80585;BME280;70137;56.482;9.154;2023-09-18T04:26:47;100721.34;;;16.59;90.73
80585;BME280;70137;56.482;9.154;2023-09-18T04:29:16;100710.50;;;16.62;91.20
80585;BME280;70137;56.482;9.154;2023-09-18T04:31:41;100701.63;;;16.63;91.36
80585;BME280;70137;56.482;9.154;2023-09-18T04:34:06;100692.78;;;16.64;91.08
80585;BME280;70137;56.482;9.154;2023-09-18T04:36:32;100692.56;;;16.66;90.95
80585;BME280;70137;56.482;9.154;2023-09-18T04:38:57;100689.16;;;16.65;91.38
80585;BME280;70137;56.482;9.154;2023-09-18T04:41:22;100677.47;;;16.68;90.99
80585;BME280;70137;56.482;9.154;2023-09-18T04:43:48;100685.13;;;16.69;91.00
80585;BME280;70137;56.482;9.154;2023-09-18T04:46:13;100686.78;;;16.70;91.41
80585;BME280;70137;56.482;9.154;2023-09-18T04:48:39;100683.94;;;16.72;91.55
80585;BME280;70137;56.482;9.154;2023-09-18T04:51:04;100689.56;;;16.75;91.38
80585;BME280;70137;56.482;9.154;2023-09-18T04:53:30;100680.69;;;16.76;90.80
80585;BME280;70137;56.482;9.154;2023-09-18T04:55:56;100676.06;;;16.78;91.22
80585;BME280;70137;56.482;9.154;2023-09-18T04:58:21;100672.25;;;16.81;91.49
80585;BME280;70137;56.482;9.154;2023-09-18T05:00:53;100676.25;;;16.83;91.39
80585;BME280;70137;56.482;9.154;2023-09-18T05:03:18;100671.81;;;16.84;91.57
80585;BME280;70137;56.482;9.154;2023-09-18T05:05:44;100675.03;;;16.86;91.22
80585;BME280;70137;56.482;9.154;2023-09-18T05:08:09;100666.97;;;16.87;91.02
80585;BME280;70137;56.482;9.154;2023-09-18T05:10:34;100677.06;;;16.91;91.42
80585;BME280;70137;56.482;9.154;2023-09-18T05:13:00;100675.03;;;16.93;92.10
80585;BME280;70137;56.482;9.154;2023-09-18T05:15:25;100676.63;;;16.94;91.65
80585;BME280;70137;56.482;9.154;2023-09-18T05:17:58;100684.06;;;16.97;91.61
80585;BME280;70137;56.482;9.154;2023-09-18T05:20:25;100663.75;;;16.99;91.31
80585;BME280;70137;56.482;9.154;2023-09-18T05:22:52;100680.03;;;17.01;91.89
80585;BME280;70137;56.482;9.154;2023-09-18T05:25:21;100684.25;;;17.02;91.17
80585;BME280;70137;56.482;9.154;2023-09-18T05:27:48;100674.38;;;17.04;91.51
80585;BME280;70137;56.482;9.154;2023-09-18T05:30:18;100672.34;;;17.06;91.40
80585;BME280;70137;56.482;9.154;2023-09-18T05:32:45;100669.34;;;17.09;91.29
80585;BME280;70137;56.482;9.154;2023-09-18T05:35:11;100668.31;;;17.10;91.44
80585;BME280;70137;56.482;9.154;2023-09-18T05:37:38;100665.28;;;17.13;91.13
80585;BME280;70137;56.482;9.154;2023-09-18T05:40:05;100656.41;;;17.14;91.10
80585;BME280;70137;56.482;9.154;2023-09-18T05:42:32;100648.34;;;17.15;90.92
80585;BME280;70137;56.482;9.154;2023-09-18T05:44:57;100655.00;;;17.18;90.88
80585;BME280;70137;56.482;9.154;2023-09-18T05:47:23;100654.00;;;17.19;90.96
80585;BME280;70137;56.482;9.154;2023-09-18T05:49:48;100659.22;;;17.19;90.75
80585;BME280;70137;56.482;9.154;2023-09-18T05:52:14;100654.56;;;17.21;90.49
80585;BME280;70137;56.482;9.154;2023-09-18T05:54:39;100657.19;;;17.21;90.67
80585;BME280;70137;56.482;9.154;2023-09-18T05:57:04;100676.13;;;17.23;90.42
80585;BME280;70137;56.482;9.154;2023-09-18T05:59:29;100671.69;;;17.24;90.34
80585;BME280;70137;56.482;9.154;2023-09-18T06:01:55;100666.22;;;17.25;90.03
80585;BME280;70137;56.482;9.154;2023-09-18T06:04:20;100668.47;;;17.28;90.92
80585;BME280;70137;56.482;9.154;2023-09-18T06:06:46;100654.34;;;17.29;90.36
80585;BME280;70137;56.482;9.154;2023-09-18T06:09:11;100653.91;;;17.32;90.34
80585;BME280;70137;56.482;9.154;2023-09-18T06:11:37;100651.88;;;17.34;90.64
80585;BME280;70137;56.482;9.154;2023-09-18T06:14:03;100646.25;;;17.37;90.42
80585;BME280;70137;56.482;9.154;2023-09-18T06:16:28;100636.34;;;17.39;90.08
80585;BME280;70137;56.482;9.154;2023-09-18T06:18:55;100642.19;;;17.41;90.29
80585;BME280;70137;56.482;9.154;2023-09-18T06:21:21;100630.47;;;17.44;89.84
80585;BME280;70137;56.482;9.154;2023-09-18T06:23:46;100627.22;;;17.49;89.87
80585;BME280;70137;56.482;9.154;2023-09-18T06:26:11;100627.81;;;17.51;89.98
80585;BME280;70137;56.482;9.154;2023-09-18T06:28:37;100614.28;;;17.54;89.62
80585;BME280;70137;56.482;9.154;2023-09-18T06:31:02;100618.28;;;17.56;89.97
80585;BME280;70137;56.482;9.154;2023-09-18T06:33:27;100605.81;;;17.58;89.19
80585;BME280;70137;56.482;9.154;2023-09-18T06:35:53;100611.63;;;17.60;89.43
80585;BME280;70137;56.482;9.154;2023-09-18T06:38:19;100612.00;;;17.64;89.64
80585;BME280;70137;56.482;9.154;2023-09-18T06:40:46;100595.25;;;17.65;89.54
80585;BME280;70137;56.482;9.154;2023-09-18T06:43:11;100581.97;;;17.66;89.73
80585;BME280;70137;56.482;9.154;2023-09-18T06:45:36;100583.56;;;17.67;89.17
80585;BME280;70137;56.482;9.154;2023-09-18T06:48:03;100583.34;;;17.69;88.97
80585;BME280;70137;56.482;9.154;2023-09-18T06:50:29;100586.78;;;17.69;89.05
80585;BME280;70137;56.482;9.154;2023-09-18T06:52:54;100572.84;;;17.69;89.33
80585;BME280;70137;56.482;9.154;2023-09-18T06:55:19;100587.59;;;17.70;89.04
80585;BME280;70137;56.482;9.154;2023-09-18T06:57:45;100578.72;;;17.71;89.00
80585;BME280;70137;56.482;9.154;2023-09-18T07:00:11;100574.06;;;17.73;89.23
80585;BME280;70137;56.482;9.154;2023-09-18T07:02:39;100560.94;;;17.73;89.18
80585;BME280;70137;56.482;9.154;2023-09-18T07:05:05;100558.09;;;17.74;89.22
80585;BME280;70137;56.482;9.154;2023-09-18T07:07:31;100536.31;;;17.74;88.96
80585;BME280;70137;56.482;9.154;2023-09-18T07:09:57;100530.69;;;17.77;89.02
80585;BME280;70137;56.482;9.154;2023-09-18T07:12:22;100525.22;;;17.79;89.02
80585;BME280;70137;56.482;9.154;2023-09-18T07:14:48;100528.19;;;17.82;88.98
80585;BME280;70137;56.482;9.154;2023-09-18T07:17:13;100523.53;;;17.84;88.69
80585;BME280;70137;56.482;9.154;2023-09-18T07:19:40;100526.53;;;17.88;88.82
80585;BME280;70137;56.482;9.154;2023-09-18T07:22:05;100528.94;;;17.89;88.50
80585;BME280;70137;56.482;9.154;2023-09-18T07:24:31;100525.31;;;17.90;88.52
80585;BME280;70137;56.482;9.154;2023-09-18T07:26:56;100516.19;;;17.93;88.63
80585;BME280;70137;56.482;9.154;2023-09-18T07:29:23;100515.56;;;17.97;88.68
80585;BME280;70137;56.482;9.154;2023-09-18T07:31:51;100504.19;;;18.03;88.38
80585;BME280;70137;56.482;9.154;2023-09-18T07:34:17;100488.59;;;18.09;88.34
80585;BME280;70137;56.482;9.154;2023-09-18T07:36:43;100488.53;;;18.15;88.66
80585;BME280;70137;56.482;9.154;2023-09-18T07:39:11;100486.44;;;18.24;88.67
80585;BME280;70137;56.482;9.154;2023-09-18T07:41:37;100476.78;;;18.36;87.84
80585;BME280;70137;56.482;9.154;2023-09-18T07:44:03;100453.06;;;18.43;88.11
80585;BME280;70137;56.482;9.154;2023-09-18T07:46:28;100451.06;;;18.45;87.88
80585;BME280;70137;56.482;9.154;2023-09-18T07:48:53;100457.09;;;18.45;87.65
80585;BME280;70137;56.482;9.154;2023-09-18T07:51:19;100459.63;;;18.52;87.25
80585;BME280;70137;56.482;9.154;2023-09-18T07:53:44;100444.97;;;18.63;87.34
80585;BME280;70137;56.482;9.154;2023-09-18T07:56:10;100453.00;;;18.68;87.24
80585;BME280;70137;56.482;9.154;2023-09-18T07:58:35;100462.97;;;18.77;86.17
80585;BME280;70137;56.482;9.154;2023-09-18T08:01:04;100461.28;;;18.83;86.29
80585;BME280;70137;56.482;9.154;2023-09-18T08:03:30;100451.91;;;18.87;85.61
80585;BME280;70137;56.482;9.154;2023-09-18T08:05:55;100448.50;;;18.86;86.03
80585;BME280;70137;56.482;9.154;2023-09-18T08:08:21;100435.59;;;18.85;86.03
80585;BME280;70137;56.482;9.154;2023-09-18T08:10:50;100434.00;;;18.84;85.63
80585;BME280;70137;56.482;9.154;2023-09-18T08:13:16;100423.47;;;18.84;85.24
80585;BME280;70137;56.482;9.154;2023-09-18T08:15:41;100435.03;;;18.83;85.09
80585;BME280;70137;56.482;9.154;2023-09-18T08:18:06;100424.50;;;18.83;85.27
80585;BME280;70137;56.482;9.154;2023-09-18T08:20:32;100425.75;;;18.80;84.78
80585;BME280;70137;56.482;9.154;2023-09-18T08:22:58;100424.06;;;18.86;84.96
80585;BME280;70137;56.482;9.154;2023-09-18T08:25:26;100423.41;;;19.02;84.65
80585;BME280;70137;56.482;9.154;2023-09-18T08:27:52;100405.84;;;19.26;84.62
80585;BME280;70137;56.482;9.154;2023-09-18T08:30:17;100403.34;;;19.31;84.33
80585;BME280;70137;56.482;9.154;2023-09-18T08:32:46;100399.78;;;19.37;83.83
80585;BME280;70137;56.482;9.154;2023-09-18T08:35:12;100395.44;;;19.43;83.63
80585;BME280;70137;56.482;9.154;2023-09-18T08:37:37;100384.22;;;19.48;82.89
80585;BME280;70137;56.482;9.154;2023-09-18T08:40:03;100382.44;;;19.60;83.04
80585;BME280;70137;56.482;9.154;2023-09-18T08:42:35;100384.34;;;19.64;82.87
80585;BME280;70137;56.482;9.154;2023-09-18T08:45:02;100365.81;;;19.83;82.85
80585;BME280;70137;56.482;9.154;2023-09-18T08:47:29;100374.22;;;19.96;81.91
80585;BME280;70137;56.482;9.154;2023-09-18T08:49:57;100354.56;;;19.99;81.41
80585;BME280;70137;56.482;9.154;2023-09-18T08:52:24;100358.84;;;20.05;81.07
80585;BME280;70137;56.482;9.154;2023-09-18T08:54:51;100349.31;;;20.16;79.67
80585;BME280;70137;56.482;9.154;2023-09-18T08:57:16;100349.75;;;20.24;80.63
80585;BME280;70137;56.482;9.154;2023-09-18T08:59:42;100338.34;;;20.36;80.30
80585;BME280;70137;56.482;9.154;2023-09-18T09:02:09;100326.88;;;20.42;79.48
80585;BME280;70137;56.482;9.154;2023-09-18T09:04:37;100327.81;;;20.47;79.65
80585;BME280;70137;56.482;9.154;2023-09-18T09:07:03;100326.53;;;20.50;79.24
80585;BME280;70137;56.482;9.154;2023-09-18T09:09:28;100320.16;;;20.63;78.71
80585;BME280;70137;56.482;9.154;2023-09-18T09:11:56;100323.44;;;20.86;78.70
80585;BME280;70137;56.482;9.154;2023-09-18T09:14:21;100303.19;;;21.09;78.68
80585;BME280;70137;56.482;9.154;2023-09-18T09:16:51;100299.41;;;21.22;77.21
80585;BME280;70137;56.482;9.154;2023-09-18T09:19:18;100299.91;;;21.19;75.47
80585;BME280;70137;56.482;9.154;2023-09-18T09:21:45;100289.53;;;21.12;75.66
80585;BME280;70137;56.482;9.154;2023-09-18T09:24:11;100270.69;;;21.03;75.62
80585;BME280;70137;56.482;9.154;2023-09-18T09:26:39;100268.16;;;20.92;75.85
80585;BME280;70137;56.482;9.154;2023-09-18T09:29:15;100253.19;;;20.75;75.99
80585;BME280;70137;56.482;9.154;2023-09-18T09:31:43;100233.00;;;20.64;75.82
80585;BME280;70137;56.482;9.154;2023-09-18T09:34:09;100228.31;;;20.66;77.04
80585;BME280;70137;56.482;9.154;2023-09-18T09:36:34;100215.84;;;20.78;76.35
80585;BME280;70137;56.482;9.154;2023-09-18T09:39:00;100214.63;;;20.86;76.47
80585;BME280;70137;56.482;9.154;2023-09-18T09:41:26;100197.78;;;20.87;76.08
80585;BME280;70137;56.482;9.154;2023-09-18T09:43:53;100193.47;;;20.81;76.84
80585;BME280;70137;56.482;9.154;2023-09-18T09:46:20;100181.47;;;20.68;76.76
80585;BME280;70137;56.482;9.154;2023-09-18T09:49:05;100176.34;;;20.62;76.61
80585;BME280;70137;56.482;9.154;2023-09-18T09:51:31;100171.88;;;20.62;76.96
80585;BME280;70137;56.482;9.154;2023-09-18T09:53:57;100176.44;;;20.67;76.59
80585;BME280;70137;56.482;9.154;2023-09-18T09:56:40;100154.84;;;20.86;76.42
80585;BME280;70137;56.482;9.154;2023-09-18T09:59:06;100154.69;;;21.20;76.86
80585;BME280;70137;56.482;9.154;2023-09-18T10:01:35;100144.56;;;21.61;76.08
80585;BME280;70137;56.482;9.154;2023-09-18T10:04:04;100128.22;;;21.91;75.25
80585;BME280;70137;56.482;9.154;2023-09-18T10:06:33;100127.88;;;22.14;72.59
80585;BME280;70137;56.482;9.154;2023-09-18T10:09:00;100134.53;;;22.22;70.82
80585;BME280;70137;56.482;9.154;2023-09-18T10:11:26;100124.53;;;22.29;70.98
80585;BME280;70137;56.482;9.154;2023-09-18T10:13:59;100119.81;;;22.31;70.68
80585;BME280;70137;56.482;9.154;2023-09-18T10:16:26;100112.69;;;22.32;70.06
80585;BME280;70137;56.482;9.154;2023-09-18T10:19:11;100106.78;;;22.14;69.32
80585;BME280;70137;56.482;9.154;2023-09-18T10:24:33;100101.56;;;22.24;70.40
80585;BME280;70137;56.482;9.154;2023-09-18T10:27:02;100100.81;;;22.34;70.43
80585;BME280;70137;56.482;9.154;2023-09-18T10:29:30;100097.91;;;22.36;69.50
80585;BME280;70137;56.482;9.154;2023-09-18T10:31:56;100105.78;;;22.25;69.52
80585;BME280;70137;56.482;9.154;2023-09-18T10:34:23;100098.88;;;22.19;69.29
80585;BME280;70137;56.482;9.154;2023-09-18T10:36:54;100090.34;;;22.07;70.20
80585;BME280;70137;56.482;9.154;2023-09-18T10:39:20;100093.19;;;22.00;70.76
80585;BME280;70137;56.482;9.154;2023-09-18T10:41:53;100078.63;;;21.93;71.42
80585;BME280;70137;56.482;9.154;2023-09-18T10:44:18;100072.97;;;21.79;71.32
80585;BME280;70137;56.482;9.154;2023-09-18T10:46:48;100077.09;;;21.65;71.75
80585;BME280;70137;56.482;9.154;2023-09-18T10:49:14;100076.97;;;21.50;72.67
80585;BME280;70137;56.482;9.154;2023-09-18T10:51:40;100070.63;;;21.46;72.69
80585;BME280;70137;56.482;9.154;2023-09-18T10:54:11;100070.56;;;21.40;72.93
80585;BME280;70137;56.482;9.154;2023-09-18T10:56:36;100058.88;;;21.31;73.21
80585;BME280;70137;56.482;9.154;2023-09-18T10:59:06;100060.84;;;21.19;73.65
80585;BME280;70137;56.482;9.154;2023-09-18T11:01:32;100052.91;;;21.14;74.28
80585;BME280;70137;56.482;9.154;2023-09-18T11:04:01;100041.50;;;21.08;74.48
80585;BME280;70137;56.482;9.154;2023-09-18T11:06:27;100040.38;;;20.99;74.43
80585;BME280;70137;56.482;9.154;2023-09-18T11:09:05;100039.50;;;20.94;74.86
80585;BME280;70137;56.482;9.154;2023-09-18T11:11:32;100023.13;;;20.86;75.17
80585;BME280;70137;56.482;9.154;2023-09-18T11:14:00;100026.44;;;20.77;75.43
80585;BME280;70137;56.482;9.154;2023-09-18T11:18:53;100025.06;;;20.74;75.50
80585;BME280;70137;56.482;9.154;2023-09-18T11:21:24;100038.22;;;20.69;75.48
80585;BME280;70137;56.482;9.154;2023-09-18T11:26:29;100032.22;;;20.52;75.30
80585;BME280;70137;56.482;9.154;2023-09-18T11:28:58;100035.25;;;20.44;76.29
80585;BME280;70137;56.482;9.154;2023-09-18T11:31:44;100046.63;;;20.27;77.16
80585;BME280;70137;56.482;9.154;2023-09-18T11:36:49;100051.03;;;20.05;78.53
80585;BME280;70137;56.482;9.154;2023-09-18T11:39:38;100074.56;;;19.95;78.91
80585;BME280;70137;56.482;9.154;2023-09-18T11:44:33;100084.13;;;19.84;80.50
80585;BME280;70137;56.482;9.154;2023-09-18T11:46:59;100066.47;;;19.80;81.17
80585;BME280;70137;56.482;9.154;2023-09-18T11:49:25;100079.75;;;19.73;81.29
80585;BME280;70137;56.482;9.154;2023-09-18T11:51:53;100069.50;;;19.71;81.90
80585;BME280;70137;56.482;9.154;2023-09-18T11:54:19;100067.56;;;19.67;82.54
80585;BME280;70137;56.482;9.154;2023-09-18T11:56:44;100078.56;;;19.64;82.00
80585;BME280;70137;56.482;9.154;2023-09-18T11:59:10;100055.63;;;19.59;82.54
80585;BME280;70137;56.482;9.154;2023-09-18T12:01:36;100056.09;;;19.56;82.45
80585;BME280;70137;56.482;9.154;2023-09-18T12:04:02;100054.72;;;19.54;82.83
80585;BME280;70137;56.482;9.154;2023-09-18T12:06:32;100039.44;;;19.51;82.55
80585;BME280;70137;56.482;9.154;2023-09-18T12:08:58;100046.41;;;19.45;82.97
80585;BME280;70137;56.482;9.154;2023-09-18T12:11:23;100048.75;;;19.41;83.32
80585;BME280;70137;56.482;9.154;2023-09-18T12:13:52;100043.13;;;19.38;83.45
80585;BME280;70137;56.482;9.154;2023-09-18T12:16:18;100037.09;;;19.37;83.92
80585;BME280;70137;56.482;9.154;2023-09-18T12:18:50;100035.50;;;19.36;83.93
80585;BME280;70137;56.482;9.154;2023-09-18T12:21:16;100034.47;;;19.37;83.87
80585;BME280;70137;56.482;9.154;2023-09-18T12:23:45;100033.66;;;19.37;84.33
80585;BME280;70137;56.482;9.154;2023-09-18T12:26:12;100020.53;;;19.37;84.60
80585;BME280;70137;56.482;9.154;2023-09-18T12:28:40;100028.66;;;19.35;84.83
80585;BME280;70137;56.482;9.154;2023-09-18T12:31:06;100029.13;;;19.32;84.83
80585;BME280;70137;56.482;9.154;2023-09-18T12:33:36;100020.34;;;19.27;85.00
80585;BME280;70137;56.482;9.154;2023-09-18T12:36:03;100011.59;;;19.21;84.90
80585;BME280;70137;56.482;9.154;2023-09-18T12:38:30;100016.22;;;19.14;85.55
80585;BME280;70137;56.482;9.154;2023-09-18T12:40:55;100014.75;;;19.06;85.77
80585;BME280;70137;56.482;9.154;2023-09-18T12:43:21;100012.06;;;19.01;85.95
80585;BME280;70137;56.482;9.154;2023-09-18T12:45:52;100004.88;;;18.97;86.63
80585;BME280;70137;56.482;9.154;2023-09-18T12:48:18;100009.81;;;18.93;87.38
80585;BME280;70137;56.482;9.154;2023-09-18T12:50:43;99998.97;;;18.90;87.50
80585;BME280;70137;56.482;9.154;2023-09-18T12:53:13;99999.66;;;18.85;87.50
80585;BME280;70137;56.482;9.154;2023-09-18T12:55:39;99997.53;;;18.82;87.97
80585;BME280;70137;56.482;9.154;2023-09-18T12:58:05;99995.09;;;18.80;88.29
80585;BME280;70137;56.482;9.154;2023-09-18T13:00:33;99997.19;;;18.78;88.36
80585;BME280;70137;56.482;9.154;2023-09-18T13:02:59;99994.78;;;18.77;88.96
80585;BME280;70137;56.482;9.154;2023-09-18T13:05:25;99986.34;;;18.75;88.82